• Join FlightAware (Why Join?)
  • Login
  • US Flag 
02:00PM EDT


 

Airport Tracker/Info


-or-


 

Live Flight TrackerFlight Track Log ✈ EJA982 ✈ 09-Jun-2013 ✈ KSFO - KASE

Flight Track Log - Related Links

Times and Time Zones

All times are in EDT time to prevent confusion due to time zone crossing. See the EJA982 flight status page for this flight to view local times or setup timezone preferences in your user account.

Time Position Orientation Groundspeed Altitude Reporting Facility
EDT Latitude Longitude Course Direction KTS MPH feet Rate Location/Type
04:13PM 37.6667 -122.3833 78° East 226 260 3,300  Level Northern Cal TRACON
04:14PM 37.7000 -122.3167 58° Northeast 272 313 5,500 2,460 Climbing Northern Cal TRACON
04:16PM 37.7683 -122.1544 62° Northeast 291 335 10,300 1,980 Climbing Oakland Center
04:17PM 37.7981 -122.0431 71° East 333 383 11,300 1,440 Climbing Oakland Center
04:18PM 37.8300 -121.9233 71° East 358 412 13,300 1,800 Climbing Oakland Center
04:19PM 37.7807 -121.4156 78° East  Level Estimated
04:19PM 37.8633 -121.7978 71° East 374 430 15,100  Level Oakland Center
04:20PM 37.8958 -121.6714 72° East 379 436 17,100 2,040 Climbing Oakland Center
04:21PM 37.9206 -121.5097 79° East 391 450 19,300 1,740 Climbing Oakland Center
04:22PM 37.9414 -121.3822 78° East 400 460 20,700 1,380 Climbing Oakland Center
04:23PM 37.9642 -121.2411 78° East 410 472 22,200 1,380 Climbing Oakland Center
04:24PM 37.9869 -121.0967 79° East 420 483 23,600 1,500 Climbing Oakland Center
04:25PM 38.0144 -120.9194 79° East 430 495 25,300 1,440 Climbing Oakland Center
04:26PM 38.0394 -120.7661 78° East 445 512 26,600 1,260 Climbing Oakland Center
04:27PM 38.0639 -120.6100 79° East 455 524 27,900 1,440 Climbing Oakland Center
04:28PM 38.0872 -120.4519 79° East 458 527 29,600 1,560 Climbing Oakland Center
04:30PM 38.1108 -120.2939 79° East 458 527 31,200 1,860 Climbing Oakland Center
04:31PM 38.1350 -120.1367 79° East 455 524 33,500 1,800 Climbing Oakland Center
04:32PM 38.1569 -119.9808 80° East 451 519 35,000 780 Climbing Oakland Center
04:33PM 38.1819 -119.8142 79° East 473 544 35,200 1,380 Climbing Oakland Center
04:34PM 38.2111 -119.6153 79° East 479 551 37,900 1,800 Climbing Oakland Center
04:35PM 38.2344 -119.4531 80° East 480 552 38,900 480 Climbing Oakland Center
04:36PM 38.2564 -119.2969 80° East 487 560 39,000  Climbing Oakland Center
04:37PM 38.2806 -119.1189 80° East 509 586 39,000 60 Level Oakland Center
04:38PM 38.3106 -118.9031 80° East 518 596 39,200 540 Climbing Oakland Center
04:39PM 38.3350 -118.7225 80° East 520 598 40,200 840 Climbing Oakland Center
04:40PM 38.3592 -118.5464 80° East 510 587 41,000 360 Climbing Oakland Center
04:41PM 38.3831 -118.3681 80° East 513 590 41,000  Level Oakland Center
04:42PM 38.4072 -118.1861 80° East 521 600 41,000  Level Oakland Center
04:43PM 38.4333 -117.9817 81° East 524 603 41,000  Level Oakland Center
04:44PM 38.4569 -117.7953 81° East 528 608 41,000  Level Oakland Center
04:45PM 38.4756 -117.6103 83° East 524 603 41,000  Level Oakland Center
04:46PM 38.4950 -117.4231 82° East 526 605 41,000  Level Oakland Center
04:47PM 38.5144 -117.2353 82° East 527 606 41,000  Level Oakland Center
04:48PM 38.5331 -117.0464 83° East 528 608 41,000  Level Salt Lake Center
04:49PM 38.5517 -116.8578 83° East 531 611 41,000  Level Oakland Center
04:50PM 38.5694 -116.6703 83° East 530 610 41,000  Level Oakland Center
04:51PM 38.5875 -116.4831 83° East 529 609 41,000  Level Oakland Center
04:52PM 38.6044 -116.2967 83° East 527 606 41,000  Level Oakland Center
04:53PM 38.6211 -116.1089 83° East 530 610 41,000  Level Oakland Center
04:54PM 38.6414 -115.8856 83° East 527 606 41,000  Level Salt Lake Center
04:55PM 38.6586 -115.6994 83° East 527 606 41,000  Level Salt Lake Center
04:56PM 38.6739 -115.5133 84° East 527 606 41,000  Level Salt Lake Center
04:57PM 38.6911 -115.3133 84° East 527 606 41,000  Level Salt Lake Center
04:58PM 38.7058 -115.1267 84° East 526 605 41,000  Level Salt Lake Center
04:59PM 38.7236 -114.9367 83° East 532 612 41,000  Level Salt Lake Center
05:00PM 38.7431 -114.7078 84° East 539 620 41,000  Level Salt Lake Center
05:01PM 38.7564 -114.5192 85° East 534 615 41,000  Level Salt Lake Center
05:02PM 38.7722 -114.3297 84° East 535 616 41,000  Level Salt Lake Center
05:03PM 38.7858 -114.1408 85° East 533 613 41,000  Level Salt Lake Center
05:05PM 38.7997 -113.9508 85° East 534 615 41,000  Level Salt Lake Center
05:06PM 38.8139 -113.7622 84° East 533 613 41,000  Level Salt Lake Center
05:07PM 38.8269 -113.5731 85° East 532 612 41,000  Level Salt Lake Center
05:08PM 38.8419 -113.3469 85° East 530 610 41,000  Level Salt Lake Center
05:09PM 38.8553 -113.1606 85° East 526 605 41,000  Level Salt Lake Center
05:10PM 38.8669 -112.9700 85° East 534 615 41,000  Level Salt Lake Center
05:11PM 38.8792 -112.7803 85° East 534 615 41,000  Level Salt Lake Center
05:12PM 38.8908 -112.5911 85° East 532 612 41,000  Level Salt Lake Center
05:13PM 38.9022 -112.4022 86° East 530 610 41,000  Level Salt Lake Center
05:14PM 38.9131 -112.2128 86° East 531 611 41,000  Level Salt Lake Center
05:15PM 38.9253 -112.0242 85° East 530 610 41,000  Level Salt Lake Center
05:16PM 38.9364 -111.7958 86° East 533 613 41,000  Level Salt Lake Center
05:17PM 38.9472 -111.6067 86° East 531 611 41,000  Level Salt Lake Center
05:18PM 38.9575 -111.4164 86° East 534 615 41,000  Level Salt Lake Center
05:19PM 38.9661 -111.2217 87° East 542 624 41,000  Level Salt Lake Center
05:20PM 38.9761 -111.0292 86° East 541 623 41,000  Level Salt Lake Center
05:21PM 38.9839 -110.8278 87° East 546 628 41,000  Level Salt Lake Center
05:22PM 38.9931 -110.6086 87° East 550 633 41,000  Level Salt Lake Center
05:23PM 38.9994 -110.4528 87° East 544 626 41,000  Level Denver Center
05:24PM 39.0067 -110.2344 87° East 547 629 41,000  Level Denver Center
05:25PM 39.0192 -110.0214 86° East 545 627 41,000  Level Salt Lake Center
05:26PM 39.0264 -109.8056 87° East 544 626 41,000  Level Salt Lake Center
05:27PM 39.0336 -109.6206 87° East 543 625 41,000  Level Salt Lake Center
05:28PM 39.0389 -109.4358 88° East 542 624 41,000 -240 Level Salt Lake Center
05:29PM 39.0442 -109.2481 88° East 545 627 40,600 -780 Descending Denver Center
05:30PM 39.0514 -109.0372 87° East 534 615 39,500 -1,020 Descending Denver Center
05:31PM 39.0569 -108.8542 88° East 538 619 38,500 -1,020 Descending Denver Center
05:32PM 39.0639 -108.6361 88° East 548 631 37,400 -1,020 Descending Denver Center
05:33PM 39.0697 -108.4456 88° East 558 642 36,400 -1,080 Descending Denver Center
05:34PM 39.0789 -108.2231 87° East 562 647 35,200 -1,320 Descending Denver Center
05:35PM 39.0831 -108.0381 88° East 545 627 33,700 -2,400 Descending Denver Center
05:36PM 39.0892 -107.8208 88° East 545 627 30,300 -3,180 Descending Denver Center
05:37PM 39.0939 -107.6369 88° East 541 623 27,200 -3,300 Descending Denver Center
05:38PM 39.0986 -107.4325 88° East 520 598 23,600 -3,240 Descending Denver Center
05:39PM 39.1339 -107.2772 74° East 483 556 20,600 -2,760 Descending Denver Center
05:41PM 39.2172 -107.1847 41° Northeast 430 495 17,900 -2,580 Descending Denver Center
05:42PM 39.3153 -107.1286 24° Northeast 392 451 15,300 -2,460 Descending Denver Center
05:43PM 39.4233 -107.0672 24° Northeast 352 405 12,900 -1,200 Descending Denver Center
05:44PM 39.4239 -106.9864 89° East 299 344 12,900 -1,020 Level Denver Center
05:45PM 39.3589 -106.9506 157° South 231 266 10,800 -1,800 Descending Denver Center
05:46PM 39.3033 -106.9300 164° South 218 251 9,200 -1,260 Descending Denver Center
05:47PM 39.2672 -106.8908 140° Southeast 189 217 8,200 -1,020 Descending Denver Center